Terminal Aerodrome Forecast
Issued by NWS

Home | Current Version | Previous Version | Text Only | Print | Product List | Glossary On
Versions: 1 2 3 4 5 6 7 8 9 10 11 12 13 14 15 16 17 18 19 20 21 22 23 24
917
FTUS43 KTOP 212340
TAFMHK
TAF
KMHK 212340Z 2200/2224 05004KT P6SM BKN100
     FM220200 VRB03KT P6SM VCSH OVC050
     FM220600 35006KT P6SM SCT050
     FM221400 35013KT P6SM SCT150
     FM222300 35008KT P6SM FEW250=

USA.gov is the U.S. government's official web portal to all federal, state and local government web resources and services.